Time;durP1;ratioP1;P1;durP2;ratioP2;P2;SDS_P1;SDS_P2;PMS_P1;PMS_P2;Temp;Humidity;BMP_temperature;BMP_pressure;BME280_temperature;BME280_humidity;BME280_pressure;Samples;Min_cycle;Max_cycle;Signal;HPM_P1;HPM_P2
2023/07/28 00:02:10;;;;;;;1.70;1.60;;;21.10;66.50;21.90;99792.00;;;;6272352;22;20601;-51
2023/07/28 00:04:36;;;;;;;2.00;1.50;;;21.10;66.50;21.90;99798.00;;;;6272025;22;20487;-50
2023/07/28 00:07:05;;;;;;;1.73;1.63;;;21.10;66.50;21.90;99802.00;;;;6271808;22;20141;-50
2023/07/28 00:09:31;;;;;;;1.80;1.70;;;21.10;66.50;21.90;99793.00;;;;6272171;22;20180;-51
2023/07/28 00:12:00;;;;;;;1.60;1.50;;;21.10;66.50;21.90;99790.00;;;;6271786;22;20149;-50
2023/07/28 00:14:26;;;;;;;1.73;1.63;;;21.10;66.50;21.90;99787.00;;;;6270400;22;20146;-50
2023/07/28 00:16:53;;;;;;;1.90;1.80;;;21.10;66.50;21.90;99785.00;;;;6271892;22;20688;-50
2023/07/28 00:19:20;;;;;;;1.60;1.50;;;21.00;66.40;21.90;99783.00;;;;6270333;22;20176;-50
2023/07/28 00:21:48;;;;;;;1.63;1.53;;;21.10;66.40;21.90;99788.00;;;;6272168;22;20169;-50
2023/07/28 00:24:14;;;;;;;2.20;1.77;;;21.00;66.20;21.90;99780.00;;;;6270483;22;20141;-49
2023/07/28 00:26:40;;;;;;;1.80;1.70;;;21.10;66.40;21.90;99784.00;;;;6271936;22;20214;-51
2023/07/28 00:29:06;;;;;;;1.53;1.43;;;21.10;66.40;21.90;99785.00;;;;6271932;22;20196;-51
2023/07/28 00:31:32;;;;;;;1.80;1.70;;;21.10;66.30;21.90;99779.00;;;;6270320;22;20471;-51
2023/07/28 00:33:58;;;;;;;2.00;1.80;;;21.00;66.20;21.90;99783.00;;;;6272074;22;20203;-50
2023/07/28 00:36:24;;;;;;;1.77;1.67;;;21.10;66.30;21.90;99783.00;;;;6269859;22;20153;-50
2023/07/28 00:38:49;;;;;;;1.60;1.50;;;21.00;66.20;21.90;99782.00;;;;6271824;22;20180;-50
2023/07/28 00:41:15;;;;;;;1.70;1.60;;;21.10;66.30;21.90;99778.00;;;;6271725;22;20240;-50
2023/07/28 00:43:41;;;;;;;1.77;1.63;;;21.00;66.10;21.90;99780.00;;;;6271722;22;20156;-51
2023/07/28 00:46:06;;;;;;;1.60;1.50;;;21.00;66.10;21.90;99772.00;;;;6271863;22;20160;-50
2023/07/28 00:48:32;;;;;;;2.33;1.83;;;21.10;66.20;21.90;99781.00;;;;6270071;22;20191;-50
2023/07/28 00:50:58;;;;;;;1.70;1.60;;;21.00;66.20;21.90;99775.00;;;;6244804;22;20215;-49
2023/07/28 00:53:24;;;;;;;4.13;1.90;;;21.00;66.20;21.90;99775.00;;;;6270178;22;20157;-50
2023/07/28 00:55:50;;;;;;;2.63;2.00;;;21.10;67.50;21.90;99776.00;;;;6269855;22;20153;-51
2023/07/28 00:58:16;;;;;;;3.37;2.00;;;20.90;75.20;21.90;99780.00;;;;6269895;22;20177;-51
2023/07/28 01:00:42;;;;;;;2.10;1.90;;;20.80;74.60;21.90;99778.00;;;;6269884;22;20224;-50
2023/07/28 01:03:07;;;;;;;2.63;2.00;;;20.70;74.80;21.90;99776.00;;;;6271520;22;20168;-53
2023/07/28 01:06:07;;;;;;;2.27;2.07;;;20.70;75.40;21.90;99781.00;;;;6269617;22;20148;-51
2023/07/28 01:08:39;;;;;;;2.50;2.03;;;20.40;79.10;21.80;99779.00;;;;6271529;22;20306;-50
2023/07/28 01:11:04;;;;;;;2.30;2.10;;;20.30;79.20;21.70;99786.00;;;;6270275;22;20478;-50
2023/07/28 01:13:30;;;;;;;2.80;1.90;;;20.30;79.50;21.70;99780.00;;;;6271041;22;20145;-50
2023/07/28 01:15:57;;;;;;;2.67;1.97;;;20.30;79.50;21.70;99779.00;;;;6270984;22;20151;-51
2023/07/28 01:18:23;;;;;;;2.20;2.00;;;20.30;79.90;21.70;99765.00;;;;6271099;22;20183;-51
2023/07/28 01:20:53;;;;;;;2.27;2.07;;;20.40;76.80;21.70;99768.00;;;;6269784;22;20149;-51
2023/07/28 01:23:44;;;;;;;3.00;1.90;;;20.40;79.00;21.70;99770.00;;;;6271545;22;20133;-50
2023/07/28 01:26:30;;;;;;;2.20;2.00;;;20.30;79.80;21.60;99778.00;;;;6271543;22;20133;-51
2023/07/28 01:28:56;;;;;;;2.33;2.13;;;20.30;79.10;21.60;99757.00;;;;6270259;22;20189;-50
2023/07/28 01:31:22;;;;;;;3.17;2.10;;;20.30;80.80;21.60;99770.00;;;;6271506;22;20207;-51
2023/07/28 01:33:47;;;;;;;1.90;1.80;;;20.30;80.20;21.60;99768.00;;;;6271832;22;20531;-50
2023/07/28 01:36:13;;;;;;;2.10;1.90;;;20.30;79.40;21.60;99719.00;;;;6272488;22;20159;-51
2023/07/28 01:38:39;;;;;;;4.90;2.20;;;20.40;79.20;21.60;99762.00;;;;6270023;22;20539;-51
2023/07/28 01:41:05;;;;;;;3.10;2.23;;;20.40;80.00;21.60;99762.00;;;;6271529;22;20613;-50
2023/07/28 01:43:30;;;;;;;2.87;2.00;;;20.50;78.60;21.60;99767.00;;;;6271001;22;20142;-50
2023/07/28 01:45:56;;;;;;;2.97;2.00;;;20.40;80.50;21.60;99774.00;;;;6270898;22;20632;-51
2023/07/28 01:48:22;;;;;;;3.50;2.17;;;20.30;80.20;21.60;99762.00;;;;6273524;22;20172;-51
2023/07/28 01:50:48;;;;;;;2.90;1.93;;;20.30;81.20;21.60;99763.00;;;;6273737;22;20148;-50
2023/07/28 01:53:13;;;;;;;2.20;2.00;;;20.40;80.40;21.60;99758.00;;;;6271001;22;20567;-51
2023/07/28 01:55:39;;;;;;;2.47;2.00;;;20.30;80.80;21.60;99769.00;;;;6270993;22;20149;-54
2023/07/28 01:58:05;;;;;;;2.73;2.10;;;20.30;82.00;21.60;99758.00;;;;6270950;22;20704;-52
2023/07/28 02:00:31;;;;;;;4.17;2.10;;;20.30;81.60;21.50;99763.00;;;;6271164;22;20152;-51
2023/07/28 02:02:58;;;;;;;2.33;2.00;;;20.30;81.30;21.50;99759.00;;;;6271035;22;20148;-51
2023/07/28 02:05:23;;;;;;;2.13;1.90;;;20.10;84.50;21.50;99754.00;;;;6270828;22;20721;-51
2023/07/28 02:07:49;;;;;;;3.57;2.10;;;20.20;82.70;21.50;99752.00;;;;6270228;22;20145;-51
2023/07/28 02:10:15;;;;;;;2.83;2.30;;;20.20;81.90;21.50;99754.00;;;;6270667;22;20167;-51
2023/07/28 02:12:41;;;;;;;2.87;2.10;;;20.30;82.40;21.50;99745.00;;;;6270894;22;20148;-51
2023/07/28 02:15:07;;;;;;;2.17;2.03;;;20.20;82.70;21.50;99757.00;;;;6269467;22;20153;-51
2023/07/28 02:17:33;;;;;;;2.23;1.90;;;20.10;82.70;21.50;99755.00;;;;6270569;22;20192;-51
2023/07/28 02:19:58;;;;;;;2.40;2.00;;;20.20;82.20;21.50;99748.00;;;;6270731;22;20184;-51
2023/07/28 02:22:24;;;;;;;2.53;2.10;;;20.20;82.80;21.50;99753.00;;;;6270883;22;20141;-51
2023/07/28 02:24:50;;;;;;;4.33;2.17;;;20.10;83.50;21.40;99759.00;;;;6270324;22;20145;-51
2023/07/28 02:27:15;;;;;;;2.63;2.13;;;20.20;84.30;21.40;99767.00;;;;6270720;22;20183;-51
2023/07/28 02:29:42;;;;;;;2.53;2.30;;;20.00;86.60;21.40;99752.00;;;;6271165;22;20517;-51
2023/07/28 02:32:08;;;;;;;2.33;1.93;;;19.90;85.00;21.30;99762.00;;;;6271664;22;20527;-51
2023/07/28 02:34:33;;;;;;;1.90;1.80;;;19.80;86.70;21.30;99756.00;;;;6271482;22;20160;-51
2023/07/28 02:36:59;;;;;;;2.80;1.90;;;20.00;85.40;21.30;99762.00;;;;6270803;22;20616;-51
2023/07/28 02:39:25;;;;;;;2.20;2.00;;;20.00;85.00;21.30;99770.00;;;;6270481;22;20175;-51
2023/07/28 02:41:50;;;;;;;2.03;1.83;;;20.00;85.10;21.30;99747.00;;;;6270714;22;20144;-51
2023/07/28 02:44:16;;;;;;;1.93;1.83;;;20.10;84.30;21.30;99759.00;;;;6269145;22;20145;-51
2023/07/28 02:46:42;;;;;;;1.53;1.50;;;20.00;86.50;21.30;99765.00;;;;6270395;22;20145;-51
2023/07/28 02:49:08;;;;;;;2.00;1.80;;;19.90;86.90;21.30;99767.00;;;;6270725;22;20220;-51
2023/07/28 02:51:34;;;;;;;4.57;1.80;;;19.70;88.80;21.20;99761.00;;;;6269464;22;20158;-51
2023/07/28 02:54:00;;;;;;;2.33;1.90;;;19.70;89.40;21.20;99762.00;;;;6271083;22;20149;-51
2023/07/28 02:56:26;;;;;;;1.60;1.50;;;19.80;88.90;21.20;99766.00;;;;6270297;22;20149;-51
2023/07/28 02:58:51;;;;;;;1.70;1.60;;;19.70;89.40;21.10;99768.00;;;;6270775;22;20205;-51
2023/07/28 03:01:17;;;;;;;1.80;1.70;;;19.70;90.00;21.10;99766.00;;;;6271762;22;20155;-51
2023/07/28 03:03:43;;;;;;;1.90;1.80;;;19.60;90.40;21.10;99773.00;;;;6272205;22;20151;-51
2023/07/28 03:06:09;;;;;;;1.80;1.70;;;19.50;91.00;21.00;99774.00;;;;6270953;22;20585;-51
2023/07/28 03:08:35;;;;;;;1.60;1.50;;;19.60;90.60;21.00;99775.00;;;;6272105;22;20198;-51
2023/07/28 03:11:03;;;;;;;1.70;1.60;;;19.70;89.80;21.00;99786.00;;;;6271894;22;20148;-51
2023/07/28 03:13:29;;;;;;;2.03;1.87;;;19.60;90.20;21.00;99774.00;;;;6272192;22;20178;-51
2023/07/28 03:15:55;;;;;;;1.70;1.60;;;19.70;90.20;21.00;99778.00;;;;6272107;22;20462;-51
2023/07/28 03:18:20;;;;;;;1.97;1.80;;;19.70;90.60;21.00;99775.00;;;;6271913;22;20219;-51
2023/07/28 03:20:47;;;;;;;1.60;1.50;;;19.60;91.10;21.00;99785.00;;;;6272037;22;20155;-50
2023/07/28 03:23:12;;;;;;;1.60;1.50;;;19.60;90.20;21.00;99781.00;;;;6272090;22;20148;-51
2023/07/28 03:25:38;;;;;;;2.00;1.60;;;19.80;90.30;21.00;99764.00;;;;6271647;22;20152;-51
2023/07/28 03:28:04;;;;;;;2.20;1.83;;;19.80;89.10;21.00;99773.00;;;;6272026;22;20142;-51
2023/07/28 03:30:29;;;;;;;1.60;1.50;;;19.80;90.20;21.00;99774.00;;;;6271413;22;20156;-52
2023/07/28 03:32:55;;;;;;;1.70;1.60;;;19.70;90.70;21.00;99781.00;;;;6244770;22;20148;-51
2023/07/28 03:35:21;;;;;;;1.87;1.70;;;19.60;90.80;21.00;99781.00;;;;6271817;22;20473;-53
2023/07/28 03:37:47;;;;;;;4.23;1.67;;;19.70;90.80;21.00;99785.00;;;;6274375;22;20147;-51
2023/07/28 03:40:13;;;;;;;1.90;1.80;;;19.70;90.50;21.00;99788.00;;;;6273775;22;20183;-50
2023/07/28 03:42:38;;;;;;;2.23;1.90;;;19.80;90.40;21.00;99777.00;;;;6273801;22;20149;-51
2023/07/28 03:45:05;;;;;;;2.00;1.80;;;19.70;90.40;21.00;99771.00;;;;6273640;22;20195;-51
2023/07/28 03:47:31;;;;;;;3.63;1.90;;;19.70;90.30;21.00;99788.00;;;;6273352;22;20160;-50
2023/07/28 03:49:56;;;;;;;1.63;1.53;;;19.60;91.10;21.00;99785.00;;;;6274119;22;20172;-51
2023/07/28 03:52:22;;;;;;;1.70;1.60;;;19.70;90.20;21.00;99790.00;;;;6278125;22;20153;-50
2023/07/28 03:54:48;;;;;;;2.00;1.80;;;19.70;90.60;21.00;99798.00;;;;6274109;22;20158;-51
2023/07/28 03:57:13;;;;;;;1.80;1.70;;;19.80;90.30;21.00;99787.00;;;;6273504;22;20495;-50
2023/07/28 03:59:39;;;;;;;2.10;1.90;;;19.70;90.20;21.00;99776.00;;;;6273256;22;20179;-50
2023/07/28 04:02:05;;;;;;;2.13;1.60;;;19.80;90.50;21.10;99775.00;;;;6271808;22;20152;-50
2023/07/28 04:04:31;;;;;;;2.83;1.80;;;19.80;90.30;21.00;99778.00;;;;6272697;22;20149;-50
2023/07/28 04:06:56;;;;;;;1.40;1.40;;;19.70;91.00;21.00;99777.00;;;;6272562;22;20146;-51
2023/07/28 04:09:22;;;;;;;2.13;1.80;;;19.80;88.80;21.00;99780.00;;;;6272032;22;20175;-50
2023/07/28 04:11:48;;;;;;;2.23;1.73;;;19.80;90.30;21.00;99772.00;;;;6271803;22;20145;-50
2023/07/28 04:14:14;;;;;;;1.90;1.73;;;19.80;90.40;21.00;99780.00;;;;6273556;22;20149;-50
2023/07/28 04:16:40;;;;;;;2.40;1.70;;;19.70;91.00;21.00;99782.00;;;;6272462;22;20161;-50
2023/07/28 04:19:05;;;;;;;1.70;1.60;;;19.60;91.60;21.00;99776.00;;;;6273189;22;20216;-50
2023/07/28 04:21:31;;;;;;;1.83;1.67;;;19.60;91.90;21.00;99784.00;;;;6272968;22;20271;-51
2023/07/28 04:23:57;;;;;;;2.80;1.70;;;19.50;92.10;20.90;99789.00;;;;6273292;22;20141;-51
2023/07/28 04:26:24;;;;;;;2.23;1.80;;;19.50;92.50;20.90;99788.00;;;;6266438;22;20424;-50
2023/07/28 04:28:49;;;;;;;1.67;1.57;;;19.40;92.90;20.90;99794.00;;;;6272380;22;20246;-50
2023/07/28 04:31:15;;;;;;;2.17;1.70;;;19.40;92.90;20.90;99792.00;;;;6272680;22;20519;-50
2023/07/28 04:33:41;;;;;;;2.10;1.73;;;19.50;93.00;20.90;99791.00;;;;6272902;22;20174;-50
2023/07/28 04:36:07;;;;;;;1.90;1.80;;;19.50;92.50;20.90;99800.00;;;;6271451;22;20332;-50
2023/07/28 04:38:32;;;;;;;1.53;1.43;;;19.50;92.70;20.90;99797.00;;;;6272356;22;20180;-49
2023/07/28 04:40:58;;;;;;;2.30;1.77;;;19.60;91.90;20.90;99800.00;;;;6270817;22;20148;-51
2023/07/28 04:43:24;;;;;;;1.93;1.83;;;19.50;92.40;20.90;99801.00;;;;6273134;22;20207;-51
2023/07/28 04:45:49;;;;;;;1.97;1.80;;;19.60;92.70;20.90;99808.00;;;;6271795;22;20157;-51
2023/07/28 04:48:15;;;;;;;3.00;2.30;;;19.50;93.30;20.80;99792.00;;;;6271933;22;20248;-51
2023/07/28 04:50:41;;;;;;;2.47;1.97;;;19.40;93.60;20.80;99796.00;;;;6272234;22;20141;-51
2023/07/28 04:53:07;;;;;;;2.20;2.00;;;19.40;94.00;20.80;99797.00;;;;6272461;22;20146;-51
2023/07/28 04:55:32;;;;;;;2.20;2.00;;;19.30;94.80;20.70;99809.00;;;;6271132;22;20141;-51
2023/07/28 04:57:58;;;;;;;1.87;1.73;;;19.40;94.30;20.80;99804.00;;;;6271618;22;20544;-51
2023/07/28 05:00:24;;;;;;;2.17;1.90;;;19.40;94.00;20.80;99793.00;;;;6272359;22;20173;-51
2023/07/28 05:02:49;;;;;;;2.73;2.10;;;19.40;93.60;20.80;99817.00;;;;6272447;22;20170;-51
2023/07/28 05:05:15;;;;;;;2.03;1.90;;;19.40;94.30;20.70;99801.00;;;;6271624;22;20616;-51
2023/07/28 05:07:41;;;;;;;3.73;2.10;;;19.40;93.90;20.70;99813.00;;;;6271390;22;20612;-51
2023/07/28 05:10:07;;;;;;;2.40;2.20;;;19.50;93.90;20.70;99811.00;;;;6271635;22;20175;-51
2023/07/28 05:12:33;;;;;;;2.43;2.23;;;19.40;94.40;20.80;99821.00;;;;6272299;22;20162;-51
2023/07/28 05:14:59;;;;;;;3.60;2.20;;;19.50;94.50;20.70;99824.00;;;;6270524;22;20154;-51
2023/07/28 05:17:25;;;;;;;2.60;2.40;;;19.30;95.10;20.70;99821.00;;;;6269561;22;20161;-50
2023/07/28 05:19:50;;;;;;;2.70;2.00;;;19.30;95.30;20.70;99813.00;;;;6272133;22;20521;-51
2023/07/28 05:22:16;;;;;;;2.97;2.47;;;19.40;94.50;20.70;99820.00;;;;6272946;22;20148;-52
2023/07/28 05:24:44;;;;;;;3.63;2.10;;;19.40;95.00;20.70;99825.00;;;;6272028;22;20173;-49
2023/07/28 05:27:10;;;;;;;3.17;2.10;;;19.40;94.90;20.70;99812.00;;;;6270926;22;20146;-50
2023/07/28 05:29:36;;;;;;;3.50;2.27;;;19.40;95.00;20.70;99822.00;;;;6271078;22;20168;-50
2023/07/28 05:32:03;;;;;;;3.40;2.13;;;19.40;95.30;20.70;99821.00;;;;6272688;22;20149;-49
2023/07/28 05:34:29;;;;;;;2.10;2.00;;;19.40;95.40;20.70;99822.00;;;;6270551;22;20760;-54
2023/07/28 05:36:55;;;;;;;2.00;1.80;;;19.40;95.00;20.80;99821.00;;;;6271855;22;20154;-51
2023/07/28 05:39:20;;;;;;;4.13;2.10;;;19.50;94.20;20.80;99826.00;;;;6273002;22;20509;-51
2023/07/28 05:41:46;;;;;;;3.43;2.13;;;19.50;95.00;20.80;99827.00;;;;6270554;22;20143;-50
2023/07/28 05:44:12;;;;;;;3.90;1.90;;;19.50;95.60;20.70;99834.00;;;;6272053;22;20196;-51
2023/07/28 05:46:38;;;;;;;2.80;1.90;;;19.30;96.20;20.70;99835.00;;;;6270995;22;20151;-51
2023/07/28 05:49:04;;;;;;;1.83;1.73;;;19.30;96.20;20.70;99832.00;;;;6272084;22;20173;-51
2023/07/28 05:51:30;;;;;;;2.20;2.00;;;19.30;95.80;20.70;99838.00;;;;6274298;22;20520;-51
2023/07/28 05:53:56;;;;;;;3.37;1.90;;;19.30;96.20;20.70;99845.00;;;;6273650;22;20153;-51
2023/07/28 05:56:21;;;;;;;2.00;1.90;;;19.30;96.30;20.70;99845.00;;;;6270437;22;20177;-51
2023/07/28 05:58:47;;;;;;;1.90;1.80;;;19.40;96.30;20.70;99842.00;;;;6269717;22;20490;-51
2023/07/28 06:01:13;;;;;;;2.00;1.90;;;19.40;96.30;20.70;99837.00;;;;6244843;22;20149;-51
2023/07/28 06:03:39;;;;;;;3.43;2.00;;;19.50;96.20;20.70;99847.00;;;;6271801;22;20531;-51
2023/07/28 06:06:05;;;;;;;2.00;1.90;;;19.50;96.40;20.70;99851.00;;;;6270309;22;20142;-51
2023/07/28 06:08:31;;;;;;;2.50;2.07;;;19.40;97.00;20.70;99852.00;;;;6269767;22;20196;-51
2023/07/28 06:10:56;;;;;;;1.90;1.80;;;19.40;96.90;20.70;99865.00;;;;6271466;22;20750;-51
2023/07/28 06:13:22;;;;;;;3.33;1.87;;;19.30;97.00;20.70;99848.00;;;;6271129;22;20149;-51
2023/07/28 06:15:48;;;;;;;2.40;2.20;;;19.40;96.90;20.70;99844.00;;;;6270805;22;20157;-51
2023/07/28 06:18:13;;;;;;;2.40;2.20;;;19.30;97.40;20.70;99850.00;;;;6270838;22;20181;-51
2023/07/28 06:20:45;;;;;;;1.97;1.80;;;19.30;97.90;20.70;99851.00;;;;6271701;22;20172;-51
2023/07/28 06:23:11;;;;;;;2.27;2.07;;;19.40;97.20;20.70;99834.00;;;;6271530;22;20156;-51
2023/07/28 06:25:42;;;;;;;2.10;2.00;;;19.30;97.60;20.70;99859.00;;;;6270669;22;20148;-51
2023/07/28 06:28:08;;;;;;;5.37;2.20;;;19.30;97.50;20.70;99865.00;;;;6271780;22;20164;-51
2023/07/28 06:30:33;;;;;;;2.23;2.00;;;19.30;97.60;20.70;99859.00;;;;6271927;22;20169;-51
2023/07/28 06:32:59;;;;;;;2.67;2.00;;;19.40;97.30;20.70;99871.00;;;;6270529;22;20247;-51
2023/07/28 06:35:25;;;;;;;1.77;1.67;;;19.40;98.10;20.70;99870.00;;;;6271521;22;20149;-51
2023/07/28 06:37:51;;;;;;;5.43;2.40;;;19.30;97.50;20.70;99877.00;;;;6271109;22;20152;-50
2023/07/28 06:40:16;;;;;;;2.53;2.00;;;19.30;98.20;20.70;99877.00;;;;6269813;22;20196;-49
2023/07/28 06:42:42;;;;;;;2.50;2.30;;;19.30;97.80;20.70;99874.00;;;;6270776;22;20146;-49
2023/07/28 06:45:08;;;;;;;2.10;1.90;;;19.40;98.20;20.70;99880.00;;;;6267931;22;20172;-49
2023/07/28 06:47:34;;;;;;;2.87;2.30;;;19.40;98.30;20.70;99884.00;;;;6270322;22;20264;-49
2023/07/28 06:50:00;;;;;;;2.60;2.10;;;19.40;98.10;20.70;99892.00;;;;6265227;22;20165;-50
2023/07/28 06:52:25;;;;;;;3.93;1.80;;;19.40;97.00;20.80;99879.00;;;;6267650;22;20150;-50
2023/07/28 06:54:51;;;;;;;2.70;1.93;;;19.60;95.90;20.80;99887.00;;;;6270289;22;20199;-50
2023/07/28 06:57:17;;;;;;;2.17;1.80;;;19.70;95.20;20.90;99883.00;;;;6270527;22;20156;-50
2023/07/28 06:59:42;;;;;;;2.50;2.03;;;19.80;94.50;20.90;99896.00;;;;6270925;22;20177;-50
2023/07/28 07:02:09;;;;;;;2.70;1.87;;;19.80;94.50;21.00;99890.00;;;;6271881;22;20153;-50
2023/07/28 07:04:35;;;;;;;2.20;2.00;;;19.80;94.40;21.00;99896.00;;;;6270588;22;20149;-50
2023/07/28 07:07:02;;;;;;;2.30;2.00;;;19.90;94.60;21.00;99906.00;;;;6270894;22;20145;-50
2023/07/28 07:09:28;;;;;;;2.43;2.13;;;19.80;95.20;21.00;99909.00;;;;6271261;22;20259;-50
2023/07/28 07:11:54;;;;;;;2.50;2.30;;;19.90;94.60;21.10;99917.00;;;;6272092;22;20177;-50
2023/07/28 07:14:20;;;;;;;4.53;2.90;;;19.90;94.90;21.10;99910.00;;;;6273488;22;20201;-50
2023/07/28 07:16:46;;;;;;;2.37;2.17;;;19.90;95.40;21.10;99906.00;;;;6271819;22;20161;-50
2023/07/28 07:19:13;;;;;;;2.73;2.40;;;19.90;94.80;21.10;99911.00;;;;6261496;22;20192;-50
2023/07/28 07:21:39;;;;;;;2.90;2.07;;;19.90;94.80;21.10;99906.00;;;;6273488;22;20160;-50
2023/07/28 07:24:05;;;;;;;2.73;2.30;;;19.90;94.30;21.00;99915.00;;;;6272017;22;20149;-50
2023/07/28 07:26:33;;;;;;;2.30;2.10;;;19.90;94.50;21.20;99908.00;;;;6273051;22;20187;-50
2023/07/28 07:28:59;;;;;;;6.87;2.13;;;19.90;94.40;21.20;99912.00;;;;6272704;22;20205;-50
2023/07/28 07:31:25;;;;;;;2.50;2.30;;;20.00;94.60;21.20;99912.00;;;;6273725;22;20144;-50
2023/07/28 07:33:51;;;;;;;2.73;2.10;;;20.00;94.50;21.20;99918.00;;;;6273550;22;20144;-50
2023/07/28 07:36:18;;;;;;;3.23;2.30;;;20.00;93.90;21.30;99916.00;;;;6271866;22;20179;-50
2023/07/28 07:38:47;;;;;;;3.27;2.53;;;20.00;94.10;21.30;99913.00;;;;6267674;22;21382;-52
2023/07/28 07:41:19;;;;;;;3.87;2.30;;;20.00;94.80;21.30;99925.00;;;;6269740;22;20148;-50
2023/07/28 07:43:45;;;;;;;3.07;2.20;;;20.00;94.30;21.30;99932.00;;;;6271144;22;20213;-50
2023/07/28 07:46:11;;;;;;;4.20;2.57;;;20.00;94.60;21.30;99930.00;;;;6271913;22;20150;-50
2023/07/28 07:48:36;;;;;;;5.70;2.40;;;20.10;94.80;21.30;99934.00;;;;6271530;22;20182;-50
2023/07/28 07:51:02;;;;;;;3.60;2.60;;;20.10;94.60;21.30;99921.00;;;;6273085;22;20146;-50
2023/07/28 07:53:28;;;;;;;2.90;2.60;;;20.10;94.60;21.30;99942.00;;;;6272855;22;20150;-50
2023/07/28 07:55:53;;;;;;;2.90;2.20;;;20.10;94.60;21.30;99940.00;;;;6271902;22;20149;-50
2023/07/28 07:58:19;;;;;;;3.77;2.40;;;20.10;94.00;21.30;99928.00;;;;6270535;22;20171;-50
2023/07/28 08:00:45;;;;;;;3.20;2.27;;;20.10;93.70;21.30;99942.00;;;;6237307;22;20176;-50
2023/07/28 08:03:11;;;;;;;4.77;2.83;;;20.10;93.70;21.30;99938.00;;;;6272128;22;20154;-50
2023/07/28 08:05:37;;;;;;;4.07;2.60;;;20.10;94.40;21.30;99947.00;;;;6269345;22;20201;-50
2023/07/28 08:08:05;;;;;;;2.87;2.40;;;20.10;94.20;21.30;99937.00;;;;6272315;22;20141;-50
2023/07/28 08:10:30;;;;;;;3.50;2.37;;;20.10;93.70;21.30;99944.00;;;;6272833;22;20206;-52
2023/07/28 08:12:56;;;;;;;7.23;3.10;;;20.10;93.20;21.40;99944.00;;;;6272333;22;20152;-50
2023/07/28 08:15:22;;;;;;;3.30;2.80;;;20.10;94.10;21.40;99954.00;;;;6272947;22;20156;-50
2023/07/28 08:17:47;;;;;;;2.83;2.57;;;20.00;95.00;21.30;99951.00;;;;6271113;22;20596;-50
2023/07/28 08:20:13;;;;;;;5.53;3.37;;;20.00;94.40;21.30;99952.00;;;;6272833;22;20637;-50
2023/07/28 08:22:39;;;;;;;3.33;3.03;;;20.00;95.50;21.30;99959.00;;;;6272250;22;20153;-50
2023/07/28 08:25:05;;;;;;;3.40;3.00;;;19.90;95.70;21.30;99959.00;;;;6272517;22;20194;-50
2023/07/28 08:27:31;;;;;;;2.97;2.67;;;20.00;95.30;21.30;99958.00;;;;6266056;22;20240;-51
2023/07/28 08:29:57;;;;;;;2.63;2.40;;;20.00;94.90;21.30;99969.00;;;;6268652;22;20172;-49
2023/07/28 08:32:22;;;;;;;3.90;2.10;;;20.10;93.90;21.30;99962.00;;;;6272236;22;20598;-48
2023/07/28 08:34:48;;;;;;;3.60;2.37;;;20.20;93.40;21.30;99963.00;;;;6272171;22;20152;-50
2023/07/28 08:37:14;;;;;;;2.57;2.00;;;20.30;92.90;21.30;99967.00;;;;6271610;22;20153;-51
2023/07/28 08:39:40;;;;;;;3.33;2.20;;;20.30;92.60;21.30;99961.00;;;;6272619;22;20177;-50
2023/07/28 08:42:06;;;;;;;2.93;2.23;;;20.30;92.30;21.40;99966.00;;;;6271592;22;20593;-49
2023/07/28 08:44:32;;;;;;;2.73;2.00;;;20.30;92.20;21.40;99964.00;;;;6272171;22;20149;-50
2023/07/28 08:47:00;;;;;;;3.37;2.20;;;20.40;91.90;21.40;99967.00;;;;6270715;22;20160;-49
2023/07/28 08:49:26;;;;;;;6.50;2.37;;;20.40;91.70;21.40;99965.00;;;;6272946;22;20165;-50
2023/07/28 08:51:52;;;;;;;2.10;1.80;;;20.40;91.50;21.40;99968.00;;;;6272928;22;20160;-49
2023/07/28 08:54:18;;;;;;;2.57;2.00;;;20.40;91.40;21.40;99967.00;;;;6272279;22;20145;-51
2023/07/28 08:56:44;;;;;;;3.00;1.87;;;20.40;91.40;21.40;99970.00;;;;6272058;22;20242;-49
2023/07/28 08:59:09;;;;;;;2.67;2.07;;;20.40;91.20;21.50;99968.00;;;;6272830;22;20187;-49
2023/07/28 09:01:43;;;;;;;2.60;1.80;;;20.40;91.10;21.40;99972.00;;;;6272793;22;20692;-49
2023/07/28 09:04:12;;;;;;;2.20;2.00;;;20.40;90.90;21.40;99977.00;;;;6272808;22;20148;-49
2023/07/28 09:06:38;;;;;;;3.70;1.97;;;20.40;90.80;21.50;99975.00;;;;6272109;22;20149;-49
2023/07/28 09:09:07;;;;;;;2.00;1.80;;;20.40;90.70;21.50;99972.00;;;;6273123;22;20175;-49
2023/07/28 09:11:33;;;;;;;2.23;2.03;;;20.40;90.60;21.50;99982.00;;;;6272727;22;20183;-49
2023/07/28 09:14:00;;;;;;;2.20;2.00;;;20.40;90.50;21.50;99977.00;;;;6273221;22;20633;-48
2023/07/28 09:16:26;;;;;;;2.10;2.00;;;20.40;90.40;21.50;99961.00;;;;6271872;22;20157;-49
2023/07/28 09:19:05;;;;;;;2.63;1.90;;;20.40;90.30;21.50;99980.00;;;;6271438;22;20236;-49
2023/07/28 09:21:31;;;;;;;1.80;1.70;;;20.50;90.30;21.50;99984.00;;;;6247390;22;20125;-49
2023/07/28 09:24:03;;;;;;;2.10;1.90;;;20.50;90.30;21.50;99976.00;;;;6271230;22;20145;-50
2023/07/28 09:26:44;;;;;;;1.80;1.70;;;20.40;90.10;21.50;99976.00;;;;6245940;22;20592;-50
2023/07/28 09:29:20;;;;;;;2.03;1.80;;;20.50;90.10;21.50;99969.00;;;;6272565;22;20200;-50
2023/07/28 09:31:47;;;;;;;2.20;1.83;;;20.50;89.90;21.50;99968.00;;;;6272987;22;20168;-50
2023/07/28 09:34:22;;;;;;;1.83;1.73;;;20.50;89.60;21.50;99977.00;;;;6272727;22;20230;-50
2023/07/28 09:36:48;;;;;;;3.20;1.87;;;20.50;90.10;21.50;99964.00;;;;6273430;22;20179;-51
2023/07/28 09:39:14;;;;;;;2.10;1.90;;;20.50;89.30;21.50;99975.00;;;;6220922;22;20177;-50
2023/07/28 09:41:39;;;;;;;3.10;1.90;;;20.50;89.10;21.50;99972.00;;;;6244765;22;20582;-50
2023/07/28 09:44:06;;;;;;;2.00;1.90;;;20.50;88.90;21.50;99972.00;;;;6272853;22;20168;-50
2023/07/28 09:46:37;;;;;;;2.30;1.83;;;20.50;88.80;21.50;99970.00;;;;6271806;22;20168;-50
2023/07/28 09:49:07;;;;;;;2.10;1.90;;;20.50;88.70;21.50;99970.00;;;;6271277;22;20511;-49
2023/07/28 09:51:33;;;;;;;1.80;1.70;;;20.50;88.50;21.50;99977.00;;;;6274697;22;20153;-49
2023/07/28 09:54:17;;;;;;;1.90;1.77;;;20.50;88.30;21.50;99968.00;;;;6246419;22;20613;-49
2023/07/28 09:56:43;;;;;;;1.90;1.80;;;20.50;88.20;21.60;99971.00;;;;6244458;22;20183;-50
2023/07/28 09:59:14;;;;;;;3.50;2.00;;;20.50;88.20;21.60;99973.00;;;;6245107;22;20668;-49
2023/07/28 10:01:39;;;;;;;2.00;1.90;;;20.50;88.20;21.60;99973.00;;;;6272010;22;20187;-50
2023/07/28 10:04:05;;;;;;;2.70;1.80;;;20.60;88.10;21.60;99972.00;;;;6268038;22;20148;-50
2023/07/28 10:06:33;;;;;;;2.20;1.67;;;20.60;87.90;21.60;99972.00;;;;6266911;22;20153;-50
2023/07/28 10:08:59;;;;;;;2.37;1.97;;;20.60;88.00;21.60;99976.00;;;;6245494;22;20678;-50
2023/07/28 10:11:26;;;;;;;3.97;2.00;;;20.60;87.90;21.60;99970.00;;;;6270018;22;20173;-50
2023/07/28 10:13:54;;;;;;;2.70;2.10;;;20.60;87.80;21.60;99965.00;;;;6269807;22;20156;-49
2023/07/28 10:16:20;;;;;;;5.93;2.37;;;20.60;87.70;21.60;99969.00;;;;6244531;22;20605;-50
2023/07/28 10:18:55;;;;;;;3.73;2.50;;;20.60;87.40;21.60;99976.00;;;;6270907;22;20228;-50
2023/07/28 10:21:20;;;;;;;5.87;2.60;;;20.70;87.60;21.60;99971.00;;;;6271311;22;20585;-50
2023/07/28 10:23:55;;;;;;;4.67;3.30;;;20.70;87.50;21.60;99976.00;;;;6271367;22;20199;-50
2023/07/28 10:26:43;;;;;;;4.33;3.20;;;20.70;87.60;21.60;99974.00;;;;6272380;22;20133;-49
2023/07/28 10:29:16;;;;;;;6.77;3.90;;;20.70;87.60;21.60;99980.00;;;;6272827;22;20213;-49
2023/07/28 10:31:52;;;;;;;6.37;4.03;;;20.70;87.60;21.60;99981.00;;;;6272203;22;20149;-49
2023/07/28 10:34:18;;;;;;;7.07;4.07;;;20.70;87.60;21.60;99991.00;;;;6271192;22;21041;-49
2023/07/28 10:36:45;;;;;;;6.13;3.80;;;20.70;88.10;21.60;99993.00;;;;6271370;22;20157;-49
2023/07/28 10:39:17;;;;;;;4.20;3.80;;;20.80;87.90;21.60;99990.00;;;;6272207;22;20173;-49
2023/07/28 10:42:04;;;;;;;4.77;3.80;;;20.80;87.70;21.60;99987.00;;;;6271637;22;20694;-49
2023/07/28 10:44:30;;;;;;;6.07;3.50;;;20.80;87.80;21.60;99997.00;;;;6270234;22;20236;-49
2023/07/28 10:46:56;;;;;;;5.10;3.50;;;20.80;88.00;21.60;99994.00;;;;6270655;22;20165;-49
2023/07/28 10:49:22;;;;;;;5.17;3.57;;;20.80;87.90;21.60;99985.00;;;;6270127;22;20204;-49
2023/07/28 10:51:47;;;;;;;4.53;3.00;;;20.80;87.90;21.60;100003.00;;;;6244694;22;20145;-49
2023/07/28 10:54:16;;;;;;;4.00;3.40;;;20.90;88.00;21.60;100001.00;;;;6219131;22;20157;-50